Rixford, Vermont
Current Conditions -  °F | °C
As of 5:55 PM on Tuesday 27 Jan 2015 (Local Time) from KFSO Reporting Station
Overcast Overcast  
Wind Chill: -8°   Ceiling: 1600
Heat Index:   Visibility: NA
Dew Point:   Wind: 13mph
Humidity: 79%   Direction: 360°N
Pressure: 29.98"   Gusts: 23mph
Location:  44.958°N, 72.9958°W
Report Text: KFSO 272255Z AUTO 36011G20KT BKN016 OVC080 M13/M16 A2998 RMK AO2 T11351165 PWINO
Loading
Personal Weather Stations






























Interactive Weather Map New forecast layout! Learn more

10-Day Weather Forecast

Advertisements
Track Severe Weather on mobile